sensor_id;sensor_type;location;lat;lon;timestamp;P1;durP1;ratioP1;P2;durP2;ratioP2
65896;SDS011;52677;50.898;10.854;2022-08-05T00:00:46;7.57;;;3.72;;
65896;SDS011;52677;50.898;10.854;2022-08-05T00:02:46;7.05;;;3.70;;
65896;SDS011;52677;50.898;10.854;2022-08-05T00:04:47;6.78;;;3.58;;
65896;SDS011;52677;50.898;10.854;2022-08-05T00:06:47;4.25;;;3.30;;
65896;SDS011;52677;50.898;10.854;2022-08-05T00:08:47;5.22;;;3.35;;
65896;SDS011;52677;50.898;10.854;2022-08-05T00:10:48;5.00;;;3.28;;
65896;SDS011;52677;50.898;10.854;2022-08-05T00:12:48;4.50;;;3.13;;
65896;SDS011;52677;50.898;10.854;2022-08-05T00:14:48;6.70;;;3.90;;
65896;SDS011;52677;50.898;10.854;2022-08-05T00:16:49;5.97;;;3.40;;
65896;SDS011;52677;50.898;10.854;2022-08-05T00:18:49;6.78;;;3.55;;
65896;SDS011;52677;50.898;10.854;2022-08-05T00:20:50;9.25;;;3.60;;
65896;SDS011;52677;50.898;10.854;2022-08-05T00:22:51;5.05;;;3.65;;
65896;SDS011;52677;50.898;10.854;2022-08-05T00:24:51;5.18;;;3.90;;
65896;SDS011;52677;50.898;10.854;2022-08-05T00:26:51;5.32;;;3.65;;
65896;SDS011;52677;50.898;10.854;2022-08-05T00:28:52;9.60;;;3.90;;
65896;SDS011;52677;50.898;10.854;2022-08-05T00:30:52;8.35;;;4.00;;
65896;SDS011;52677;50.898;10.854;2022-08-05T00:32:52;8.23;;;4.00;;
65896;SDS011;52677;50.898;10.854;2022-08-05T00:34:53;9.30;;;4.20;;
65896;SDS011;52677;50.898;10.854;2022-08-05T00:36:53;5.43;;;3.90;;
65896;SDS011;52677;50.898;10.854;2022-08-05T00:38:54;5.25;;;3.90;;
65896;SDS011;52677;50.898;10.854;2022-08-05T00:40:55;5.22;;;3.38;;
65896;SDS011;52677;50.898;10.854;2022-08-05T00:42:57;12.48;;;3.72;;
65896;SDS011;52677;50.898;10.854;2022-08-05T00:44:59;5.88;;;3.72;;
65896;SDS011;52677;50.898;10.854;2022-08-05T00:47:00;6.13;;;3.17;;
65896;SDS011;52677;50.898;10.854;2022-08-05T00:49:01;7.25;;;3.80;;
65896;SDS011;52677;50.898;10.854;2022-08-05T00:51:01;5.40;;;4.00;;
65896;SDS011;52677;50.898;10.854;2022-08-05T00:53:02;4.65;;;3.50;;
65896;SDS011;52677;50.898;10.854;2022-08-05T00:55:02;4.78;;;3.58;;
65896;SDS011;52677;50.898;10.854;2022-08-05T00:57:03;4.45;;;3.38;;
65896;SDS011;52677;50.898;10.854;2022-08-05T00:59:04;4.85;;;3.72;;
65896;SDS011;52677;50.898;10.854;2022-08-05T01:01:06;4.68;;;3.85;;
65896;SDS011;52677;50.898;10.854;2022-08-05T01:03:06;5.95;;;3.53;;
65896;SDS011;52677;50.898;10.854;2022-08-05T01:05:06;9.13;;;4.15;;
65896;SDS011;52677;50.898;10.854;2022-08-05T01:07:07;5.20;;;3.45;;
65896;SDS011;52677;50.898;10.854;2022-08-05T01:09:07;6.07;;;3.70;;
65896;SDS011;52677;50.898;10.854;2022-08-05T01:11:16;9.32;;;4.22;;
65896;SDS011;52677;50.898;10.854;2022-08-05T01:15:26;6.18;;;3.63;;
65896;SDS011;52677;50.898;10.854;2022-08-05T01:21:51;8.90;;;4.03;;
65896;SDS011;52677;50.898;10.854;2022-08-05T01:24:09;6.88;;;4.10;;
65896;SDS011;52677;50.898;10.854;2022-08-05T01:26:43;4.57;;;3.90;;
65896;SDS011;52677;50.898;10.854;2022-08-05T01:29:04;7.35;;;3.85;;
65896;SDS011;52677;50.898;10.854;2022-08-05T01:31:18;6.03;;;3.83;;
65896;SDS011;52677;50.898;10.854;2022-08-05T01:33:21;5.93;;;3.65;;
65896;SDS011;52677;50.898;10.854;2022-08-05T01:35:26;7.07;;;4.30;;
65896;SDS011;52677;50.898;10.854;2022-08-05T01:39:38;7.13;;;4.25;;
65896;SDS011;52677;50.898;10.854;2022-08-05T01:41:41;4.65;;;3.80;;
65896;SDS011;52677;50.898;10.854;2022-08-05T01:43:45;6.20;;;3.70;;
65896;SDS011;52677;50.898;10.854;2022-08-05T01:45:47;7.53;;;3.65;;
65896;SDS011;52677;50.898;10.854;2022-08-05T01:47:48;10.23;;;4.18;;
65896;SDS011;52677;50.898;10.854;2022-08-05T01:49:51;9.45;;;4.30;;
65896;SDS011;52677;50.898;10.854;2022-08-05T01:53:55;11.73;;;4.00;;
65896;SDS011;52677;50.898;10.854;2022-08-05T01:57:58;6.28;;;3.95;;
65896;SDS011;52677;50.898;10.854;2022-08-05T02:00:01;4.45;;;3.75;;
65896;SDS011;52677;50.898;10.854;2022-08-05T02:02:04;5.63;;;3.90;;
65896;SDS011;52677;50.898;10.854;2022-08-05T02:04:07;5.88;;;3.85;;
65896;SDS011;52677;50.898;10.854;2022-08-05T02:06:09;8.82;;;4.43;;
65896;SDS011;52677;50.898;10.854;2022-08-05T02:08:11;5.53;;;4.00;;
65896;SDS011;52677;50.898;10.854;2022-08-05T02:10:11;5.90;;;4.13;;
65896;SDS011;52677;50.898;10.854;2022-08-05T02:14:27;8.43;;;3.83;;
65896;SDS011;52677;50.898;10.854;2022-08-05T02:16:33;5.60;;;4.07;;
65896;SDS011;52677;50.898;10.854;2022-08-05T02:18:47;6.55;;;3.78;;
65896;SDS011;52677;50.898;10.854;2022-08-05T02:21:12;9.07;;;4.05;;
65896;SDS011;52677;50.898;10.854;2022-08-05T02:25:29;9.90;;;4.40;;
65896;SDS011;52677;50.898;10.854;2022-08-05T02:27:33;5.88;;;3.83;;
65896;SDS011;52677;50.898;10.854;2022-08-05T02:29:36;4.80;;;3.97;;
65896;SDS011;52677;50.898;10.854;2022-08-05T02:31:40;4.97;;;3.63;;
65896;SDS011;52677;50.898;10.854;2022-08-05T02:33:51;5.63;;;3.70;;
65896;SDS011;52677;50.898;10.854;2022-08-05T02:35:55;10.57;;;4.35;;
65896;SDS011;52677;50.898;10.854;2022-08-05T02:37:59;5.53;;;3.80;;
65896;SDS011;52677;50.898;10.854;2022-08-05T02:40:01;8.18;;;3.97;;
65896;SDS011;52677;50.898;10.854;2022-08-05T02:42:04;5.80;;;4.10;;
65896;SDS011;52677;50.898;10.854;2022-08-05T02:44:07;7.60;;;3.90;;
65896;SDS011;52677;50.898;10.854;2022-08-05T02:46:11;5.53;;;4.55;;
65896;SDS011;52677;50.898;10.854;2022-08-05T02:48:14;6.40;;;4.07;;
65896;SDS011;52677;50.898;10.854;2022-08-05T02:50:17;7.35;;;4.10;;
65896;SDS011;52677;50.898;10.854;2022-08-05T02:52:18;5.72;;;4.07;;
65896;SDS011;52677;50.898;10.854;2022-08-05T02:54:20;6.63;;;4.03;;
65896;SDS011;52677;50.898;10.854;2022-08-05T02:56:21;11.15;;;4.57;;
65896;SDS011;52677;50.898;10.854;2022-08-05T02:58:23;7.10;;;4.13;;
65896;SDS011;52677;50.898;10.854;2022-08-05T03:00:24;11.55;;;5.80;;
65896;SDS011;52677;50.898;10.854;2022-08-05T03:02:27;8.02;;;5.30;;
65896;SDS011;52677;50.898;10.854;2022-08-05T03:04:32;9.13;;;6.32;;
65896;SDS011;52677;50.898;10.854;2022-08-05T03:06:33;7.45;;;5.70;;
65896;SDS011;52677;50.898;10.854;2022-08-05T03:08:34;8.45;;;5.75;;
65896;SDS011;52677;50.898;10.854;2022-08-05T03:10:36;9.32;;;5.85;;
65896;SDS011;52677;50.898;10.854;2022-08-05T03:12:37;8.48;;;5.07;;
65896;SDS011;52677;50.898;10.854;2022-08-05T03:14:38;4.75;;;4.20;;
65896;SDS011;52677;50.898;10.854;2022-08-05T03:16:39;8.30;;;4.25;;
65896;SDS011;52677;50.898;10.854;2022-08-05T03:18:39;5.65;;;3.90;;
65896;SDS011;52677;50.898;10.854;2022-08-05T03:20:40;5.38;;;3.80;;
65896;SDS011;52677;50.898;10.854;2022-08-05T03:22:41;12.60;;;4.03;;
65896;SDS011;52677;50.898;10.854;2022-08-05T03:24:41;9.45;;;4.63;;
65896;SDS011;52677;50.898;10.854;2022-08-05T03:26:43;5.57;;;3.45;;
65896;SDS011;52677;50.898;10.854;2022-08-05T03:28:44;6.70;;;3.40;;
65896;SDS011;52677;50.898;10.854;2022-08-05T03:30:45;7.07;;;4.05;;
65896;SDS011;52677;50.898;10.854;2022-08-05T03:32:47;6.00;;;3.72;;
65896;SDS011;52677;50.898;10.854;2022-08-05T03:34:48;6.93;;;3.60;;
65896;SDS011;52677;50.898;10.854;2022-08-05T03:36:48;4.72;;;3.25;;
65896;SDS011;52677;50.898;10.854;2022-08-05T03:38:49;6.25;;;3.70;;
65896;SDS011;52677;50.898;10.854;2022-08-05T03:40:49;6.85;;;3.33;;
65896;SDS011;52677;50.898;10.854;2022-08-05T03:42:52;7.05;;;3.60;;
65896;SDS011;52677;50.898;10.854;2022-08-05T03:44:52;5.90;;;3.72;;
65896;SDS011;52677;50.898;10.854;2022-08-05T03:46:53;4.78;;;3.80;;
65896;SDS011;52677;50.898;10.854;2022-08-05T03:48:53;5.63;;;3.72;;
65896;SDS011;52677;50.898;10.854;2022-08-05T03:51:06;5.03;;;3.58;;
65896;SDS011;52677;50.898;10.854;2022-08-05T03:54:02;5.60;;;3.63;;
65896;SDS011;52677;50.898;10.854;2022-08-05T03:55:53;4.97;;;3.70;;
65896;SDS011;52677;50.898;10.854;2022-08-05T03:57:59;4.15;;;3.75;;
65896;SDS011;52677;50.898;10.854;2022-08-05T04:00:06;5.53;;;3.92;;
65896;SDS011;52677;50.898;10.854;2022-08-05T04:02:09;7.03;;;4.07;;
65896;SDS011;52677;50.898;10.854;2022-08-05T04:04:11;6.82;;;4.03;;
65896;SDS011;52677;50.898;10.854;2022-08-05T04:08:13;5.38;;;3.58;;
65896;SDS011;52677;50.898;10.854;2022-08-05T04:10:14;4.80;;;4.30;;
65896;SDS011;52677;50.898;10.854;2022-08-05T04:12:16;5.80;;;4.00;;
65896;SDS011;52677;50.898;10.854;2022-08-05T04:14:16;4.75;;;4.15;;
65896;SDS011;52677;50.898;10.854;2022-08-05T04:16:17;6.25;;;3.83;;
65896;SDS011;52677;50.898;10.854;2022-08-05T04:18:19;6.25;;;4.50;;
65896;SDS011;52677;50.898;10.854;2022-08-05T04:20:23;5.30;;;3.65;;
65896;SDS011;52677;50.898;10.854;2022-08-05T04:22:23;5.22;;;3.40;;
65896;SDS011;52677;50.898;10.854;2022-08-05T04:24:24;9.23;;;3.83;;
65896;SDS011;52677;50.898;10.854;2022-08-05T04:26:24;4.00;;;3.40;;
65896;SDS011;52677;50.898;10.854;2022-08-05T04:28:24;7.82;;;3.90;;
65896;SDS011;52677;50.898;10.854;2022-08-05T04:30:25;6.25;;;4.10;;
65896;SDS011;52677;50.898;10.854;2022-08-05T04:32:25;4.78;;;3.92;;
65896;SDS011;52677;50.898;10.854;2022-08-05T04:34:25;6.45;;;3.90;;
65896;SDS011;52677;50.898;10.854;2022-08-05T04:36:26;7.20;;;4.47;;
65896;SDS011;52677;50.898;10.854;2022-08-05T04:38:26;9.13;;;4.40;;
65896;SDS011;52677;50.898;10.854;2022-08-05T04:40:26;5.30;;;3.63;;
65896;SDS011;52677;50.898;10.854;2022-08-05T04:42:27;3.97;;;3.50;;
65896;SDS011;52677;50.898;10.854;2022-08-05T04:44:27;6.32;;;3.95;;
65896;SDS011;52677;50.898;10.854;2022-08-05T04:46:27;4.85;;;3.60;;
65896;SDS011;52677;50.898;10.854;2022-08-05T04:48:28;7.20;;;4.63;;
65896;SDS011;52677;50.898;10.854;2022-08-05T04:50:28;5.75;;;4.00;;
65896;SDS011;52677;50.898;10.854;2022-08-05T04:52:29;5.75;;;4.03;;
65896;SDS011;52677;50.898;10.854;2022-08-05T04:54:29;5.97;;;3.90;;
65896;SDS011;52677;50.898;10.854;2022-08-05T04:56:29;4.72;;;4.07;;
65896;SDS011;52677;50.898;10.854;2022-08-05T04:58:29;6.28;;;3.80;;
65896;SDS011;52677;50.898;10.854;2022-08-05T05:00:31;8.40;;;3.95;;
65896;SDS011;52677;50.898;10.854;2022-08-05T05:02:32;5.80;;;4.60;;
65896;SDS011;52677;50.898;10.854;2022-08-05T05:04:32;10.70;;;4.50;;
65896;SDS011;52677;50.898;10.854;2022-08-05T05:06:32;6.57;;;3.70;;
65896;SDS011;52677;50.898;10.854;2022-08-05T05:08:33;6.80;;;3.85;;
65896;SDS011;52677;50.898;10.854;2022-08-05T05:12:41;5.55;;;3.53;;
65896;SDS011;52677;50.898;10.854;2022-08-05T05:14:41;9.60;;;5.07;;
65896;SDS011;52677;50.898;10.854;2022-08-05T05:16:41;12.20;;;4.70;;
65896;SDS011;52677;50.898;10.854;2022-08-05T05:18:42;7.15;;;4.70;;
65896;SDS011;52677;50.898;10.854;2022-08-05T05:20:43;8.13;;;4.55;;
65896;SDS011;52677;50.898;10.854;2022-08-05T05:22:44;10.30;;;4.60;;
65896;SDS011;52677;50.898;10.854;2022-08-05T05:24:45;7.63;;;4.57;;
65896;SDS011;52677;50.898;10.854;2022-08-05T05:26:45;9.15;;;4.70;;
65896;SDS011;52677;50.898;10.854;2022-08-05T05:28:45;9.55;;;5.80;;
65896;SDS011;52677;50.898;10.854;2022-08-05T05:30:46;5.60;;;4.30;;
65896;SDS011;52677;50.898;10.854;2022-08-05T05:32:46;6.97;;;4.20;;
65896;SDS011;52677;50.898;10.854;2022-08-05T05:34:46;6.97;;;4.57;;
65896;SDS011;52677;50.898;10.854;2022-08-05T05:36:47;14.73;;;4.78;;
65896;SDS011;52677;50.898;10.854;2022-08-05T05:38:47;6.85;;;4.20;;
65896;SDS011;52677;50.898;10.854;2022-08-05T05:40:47;8.05;;;5.25;;
65896;SDS011;52677;50.898;10.854;2022-08-05T05:42:48;8.27;;;4.80;;
65896;SDS011;52677;50.898;10.854;2022-08-05T05:44:49;8.85;;;4.53;;
65896;SDS011;52677;50.898;10.854;2022-08-05T05:46:49;6.32;;;4.68;;
65896;SDS011;52677;50.898;10.854;2022-08-05T05:48:49;9.20;;;4.80;;
65896;SDS011;52677;50.898;10.854;2022-08-05T05:50:50;14.02;;;5.57;;
65896;SDS011;52677;50.898;10.854;2022-08-05T05:52:51;5.72;;;4.15;;
65896;SDS011;52677;50.898;10.854;2022-08-05T05:54:51;6.97;;;4.57;;
65896;SDS011;52677;50.898;10.854;2022-08-05T05:56:52;6.35;;;4.68;;
65896;SDS011;52677;50.898;10.854;2022-08-05T05:58:52;7.63;;;4.28;;
65896;SDS011;52677;50.898;10.854;2022-08-05T06:00:52;9.18;;;4.90;;
65896;SDS011;52677;50.898;10.854;2022-08-05T06:02:53;4.90;;;4.00;;
65896;SDS011;52677;50.898;10.854;2022-08-05T06:04:53;6.57;;;4.63;;
65896;SDS011;52677;50.898;10.854;2022-08-05T06:06:53;8.52;;;4.95;;
65896;SDS011;52677;50.898;10.854;2022-08-05T06:08:54;7.90;;;4.65;;
65896;SDS011;52677;50.898;10.854;2022-08-05T06:10:54;7.32;;;5.35;;
65896;SDS011;52677;50.898;10.854;2022-08-05T06:12:54;7.25;;;4.93;;
65896;SDS011;52677;50.898;10.854;2022-08-05T06:14:54;7.13;;;4.85;;
65896;SDS011;52677;50.898;10.854;2022-08-05T06:16:55;6.00;;;5.13;;
65896;SDS011;52677;50.898;10.854;2022-08-05T06:18:56;4.70;;;4.20;;
65896;SDS011;52677;50.898;10.854;2022-08-05T06:20:56;7.32;;;5.05;;
65896;SDS011;52677;50.898;10.854;2022-08-05T06:22:57;12.57;;;5.78;;
65896;SDS011;52677;50.898;10.854;2022-08-05T06:24:57;15.43;;;5.78;;
65896;SDS011;52677;50.898;10.854;2022-08-05T06:26:57;9.73;;;5.00;;
65896;SDS011;52677;50.898;10.854;2022-08-05T06:28:58;7.55;;;5.20;;
65896;SDS011;52677;50.898;10.854;2022-08-05T06:30:58;6.57;;;5.20;;
65896;SDS011;52677;50.898;10.854;2022-08-05T06:32:59;5.75;;;4.68;;
65896;SDS011;52677;50.898;10.854;2022-08-05T06:34:59;8.50;;;4.68;;
65896;SDS011;52677;50.898;10.854;2022-08-05T06:36:59;7.15;;;4.97;;
65896;SDS011;52677;50.898;10.854;2022-08-05T06:39:00;11.88;;;6.13;;
65896;SDS011;52677;50.898;10.854;2022-08-05T06:41:00;9.52;;;5.15;;
65896;SDS011;52677;50.898;10.854;2022-08-05T06:43:01;5.15;;;4.35;;
65896;SDS011;52677;50.898;10.854;2022-08-05T06:45:01;6.43;;;4.68;;
65896;SDS011;52677;50.898;10.854;2022-08-05T06:47:01;7.97;;;5.10;;
65896;SDS011;52677;50.898;10.854;2022-08-05T06:49:02;9.15;;;5.53;;
65896;SDS011;52677;50.898;10.854;2022-08-05T06:51:02;10.88;;;4.93;;
65896;SDS011;52677;50.898;10.854;2022-08-05T06:53:03;8.52;;;5.57;;
65896;SDS011;52677;50.898;10.854;2022-08-05T06:55:04;7.03;;;4.72;;
65896;SDS011;52677;50.898;10.854;2022-08-05T06:57:05;7.35;;;5.18;;
65896;SDS011;52677;50.898;10.854;2022-08-05T06:59:05;9.10;;;4.72;;
65896;SDS011;52677;50.898;10.854;2022-08-05T07:01:06;7.78;;;4.22;;
65896;SDS011;52677;50.898;10.854;2022-08-05T07:03:07;6.70;;;4.15;;
65896;SDS011;52677;50.898;10.854;2022-08-05T07:05:07;4.85;;;3.70;;
65896;SDS011;52677;50.898;10.854;2022-08-05T07:07:08;13.00;;;4.43;;
65896;SDS011;52677;50.898;10.854;2022-08-05T07:09:08;5.82;;;4.22;;
65896;SDS011;52677;50.898;10.854;2022-08-05T07:11:09;6.72;;;4.07;;
65896;SDS011;52677;50.898;10.854;2022-08-05T07:13:10;9.93;;;3.90;;
65896;SDS011;52677;50.898;10.854;2022-08-05T07:15:29;4.70;;;3.42;;
65896;SDS011;52677;50.898;10.854;2022-08-05T07:17:48;4.63;;;3.50;;
65896;SDS011;52677;50.898;10.854;2022-08-05T07:19:49;4.93;;;3.80;;
65896;SDS011;52677;50.898;10.854;2022-08-05T07:21:51;8.45;;;4.20;;
65896;SDS011;52677;50.898;10.854;2022-08-05T07:23:51;6.88;;;4.47;;
65896;SDS011;52677;50.898;10.854;2022-08-05T07:25:52;9.75;;;4.25;;
65896;SDS011;52677;50.898;10.854;2022-08-05T07:27:53;11.40;;;4.45;;
65896;SDS011;52677;50.898;10.854;2022-08-05T07:29:56;7.10;;;4.30;;
65896;SDS011;52677;50.898;10.854;2022-08-05T07:31:57;5.90;;;3.47;;
65896;SDS011;52677;50.898;10.854;2022-08-05T07:33:58;5.18;;;3.80;;
65896;SDS011;52677;50.898;10.854;2022-08-05T07:35:59;4.95;;;4.25;;
65896;SDS011;52677;50.898;10.854;2022-08-05T07:37:59;6.43;;;4.13;;
65896;SDS011;52677;50.898;10.854;2022-08-05T07:40:00;7.57;;;3.97;;
65896;SDS011;52677;50.898;10.854;2022-08-05T07:42:00;4.93;;;3.92;;
65896;SDS011;52677;50.898;10.854;2022-08-05T07:44:01;6.78;;;4.35;;
65896;SDS011;52677;50.898;10.854;2022-08-05T07:46:02;7.97;;;5.13;;
65896;SDS011;52677;50.898;10.854;2022-08-05T07:48:03;13.20;;;4.60;;
65896;SDS011;52677;50.898;10.854;2022-08-05T07:50:04;7.40;;;4.73;;
65896;SDS011;52677;50.898;10.854;2022-08-05T07:52:05;8.98;;;5.13;;
65896;SDS011;52677;50.898;10.854;2022-08-05T07:54:06;10.43;;;5.57;;
65896;SDS011;52677;50.898;10.854;2022-08-05T07:56:06;9.38;;;4.35;;
65896;SDS011;52677;50.898;10.854;2022-08-05T07:58:07;9.88;;;4.68;;
65896;SDS011;52677;50.898;10.854;2022-08-05T08:00:07;10.18;;;5.65;;
65896;SDS011;52677;50.898;10.854;2022-08-05T08:02:09;12.88;;;5.93;;
65896;SDS011;52677;50.898;10.854;2022-08-05T08:04:10;6.85;;;5.30;;
65896;SDS011;52677;50.898;10.854;2022-08-05T08:06:10;7.75;;;5.15;;
65896;SDS011;52677;50.898;10.854;2022-08-05T08:08:11;7.53;;;4.60;;
65896;SDS011;52677;50.898;10.854;2022-08-05T08:10:12;6.07;;;4.50;;
65896;SDS011;52677;50.898;10.854;2022-08-05T08:12:12;10.57;;;4.15;;
65896;SDS011;52677;50.898;10.854;2022-08-05T08:14:13;6.07;;;3.85;;
65896;SDS011;52677;50.898;10.854;2022-08-05T08:16:14;7.30;;;4.22;;
65896;SDS011;52677;50.898;10.854;2022-08-05T08:18:14;13.70;;;5.53;;
65896;SDS011;52677;50.898;10.854;2022-08-05T08:20:15;6.75;;;4.32;;
65896;SDS011;52677;50.898;10.854;2022-08-05T08:22:15;9.55;;;3.97;;
65896;SDS011;52677;50.898;10.854;2022-08-05T08:24:15;4.22;;;3.83;;
65896;SDS011;52677;50.898;10.854;2022-08-05T08:26:16;9.32;;;3.75;;
65896;SDS011;52677;50.898;10.854;2022-08-05T08:28:16;5.93;;;3.38;;
65896;SDS011;52677;50.898;10.854;2022-08-05T08:30:17;6.68;;;3.92;;
65896;SDS011;52677;50.898;10.854;2022-08-05T08:32:17;4.88;;;3.10;;
65896;SDS011;52677;50.898;10.854;2022-08-05T08:34:18;4.80;;;3.60;;
65896;SDS011;52677;50.898;10.854;2022-08-05T08:36:20;4.22;;;3.50;;
65896;SDS011;52677;50.898;10.854;2022-08-05T08:38:20;5.38;;;3.47;;
65896;SDS011;52677;50.898;10.854;2022-08-05T08:40:21;3.35;;;2.92;;
65896;SDS011;52677;50.898;10.854;2022-08-05T08:42:21;4.32;;;3.22;;
65896;SDS011;52677;50.898;10.854;2022-08-05T08:44:23;3.92;;;3.05;;
65896;SDS011;52677;50.898;10.854;2022-08-05T08:48:27;5.15;;;3.22;;
65896;SDS011;52677;50.898;10.854;2022-08-05T08:50:29;3.95;;;3.25;;
65896;SDS011;52677;50.898;10.854;2022-08-05T08:52:32;4.07;;;3.38;;
65896;SDS011;52677;50.898;10.854;2022-08-05T08:54:35;4.40;;;3.30;;
65896;SDS011;52677;50.898;10.854;2022-08-05T08:56:39;5.82;;;3.20;;
65896;SDS011;52677;50.898;10.854;2022-08-05T08:58:39;5.60;;;2.90;;
65896;SDS011;52677;50.898;10.854;2022-08-05T09:00:41;3.85;;;3.00;;
65896;SDS011;52677;50.898;10.854;2022-08-05T09:02:43;3.83;;;2.95;;
65896;SDS011;52677;50.898;10.854;2022-08-05T09:04:44;3.42;;;3.05;;
65896;SDS011;52677;50.898;10.854;2022-08-05T09:06:45;4.55;;;3.17;;
65896;SDS011;52677;50.898;10.854;2022-08-05T09:08:47;6.40;;;3.13;;
65896;SDS011;52677;50.898;10.854;2022-08-05T09:10:47;4.32;;;3.10;;
65896;SDS011;52677;50.898;10.854;2022-08-05T09:12:50;3.55;;;3.25;;
65896;SDS011;52677;50.898;10.854;2022-08-05T09:14:50;4.10;;;3.03;;
65896;SDS011;52677;50.898;10.854;2022-08-05T09:16:51;3.50;;;2.85;;
65896;SDS011;52677;50.898;10.854;2022-08-05T09:18:51;5.88;;;3.17;;
65896;SDS011;52677;50.898;10.854;2022-08-05T09:20:51;3.65;;;3.00;;
65896;SDS011;52677;50.898;10.854;2022-08-05T09:25:02;7.70;;;3.10;;
65896;SDS011;52677;50.898;10.854;2022-08-05T09:27:06;3.13;;;2.67;;
65896;SDS011;52677;50.898;10.854;2022-08-05T09:29:07;5.07;;;3.30;;
65896;SDS011;52677;50.898;10.854;2022-08-05T09:31:11;3.85;;;3.10;;
65896;SDS011;52677;50.898;10.854;2022-08-05T09:33:14;3.40;;;3.10;;
65896;SDS011;52677;50.898;10.854;2022-08-05T09:35:15;4.18;;;3.45;;
65896;SDS011;52677;50.898;10.854;2022-08-05T09:37:34;4.10;;;3.10;;
65896;SDS011;52677;50.898;10.854;2022-08-05T09:39:37;3.90;;;3.33;;
65896;SDS011;52677;50.898;10.854;2022-08-05T09:41:53;6.43;;;3.47;;
65896;SDS011;52677;50.898;10.854;2022-08-05T09:43:56;3.90;;;3.05;;
65896;SDS011;52677;50.898;10.854;2022-08-05T09:45:56;3.40;;;3.00;;
65896;SDS011;52677;50.898;10.854;2022-08-05T09:47:56;3.53;;;3.00;;
65896;SDS011;52677;50.898;10.854;2022-08-05T09:49:57;6.97;;;2.92;;
65896;SDS011;52677;50.898;10.854;2022-08-05T09:51:57;4.70;;;3.40;;
65896;SDS011;52677;50.898;10.854;2022-08-05T09:53:57;4.18;;;3.22;;
65896;SDS011;52677;50.898;10.854;2022-08-05T09:55:59;4.05;;;2.95;;
65896;SDS011;52677;50.898;10.854;2022-08-05T09:58:08;4.85;;;3.03;;
65896;SDS011;52677;50.898;10.854;2022-08-05T10:00:13;2.78;;;2.40;;
65896;SDS011;52677;50.898;10.854;2022-08-05T10:02:30;3.88;;;2.20;;
65896;SDS011;52677;50.898;10.854;2022-08-05T10:04:35;3.63;;;2.67;;
65896;SDS011;52677;50.898;10.854;2022-08-05T10:06:39;4.40;;;2.63;;
65896;SDS011;52677;50.898;10.854;2022-08-05T10:08:40;3.92;;;2.53;;
65896;SDS011;52677;50.898;10.854;2022-08-05T10:12:46;2.60;;;2.15;;
65896;SDS011;52677;50.898;10.854;2022-08-05T10:14:50;3.58;;;2.30;;
65896;SDS011;52677;50.898;10.854;2022-08-05T10:16:51;2.65;;;2.30;;
65896;SDS011;52677;50.898;10.854;2022-08-05T10:18:55;5.95;;;2.35;;
65896;SDS011;52677;50.898;10.854;2022-08-05T10:21:03;3.03;;;2.60;;
65896;SDS011;52677;50.898;10.854;2022-08-05T10:23:04;4.60;;;2.42;;
65896;SDS011;52677;50.898;10.854;2022-08-05T10:25:05;2.92;;;2.38;;
65896;SDS011;52677;50.898;10.854;2022-08-05T10:27:06;3.40;;;2.80;;
65896;SDS011;52677;50.898;10.854;2022-08-05T10:29:07;4.05;;;2.60;;
65896;SDS011;52677;50.898;10.854;2022-08-05T10:31:07;3.03;;;2.50;;
65896;SDS011;52677;50.898;10.854;2022-08-05T10:33:11;4.93;;;2.78;;
65896;SDS011;52677;50.898;10.854;2022-08-05T10:35:12;6.47;;;2.80;;
65896;SDS011;52677;50.898;10.854;2022-08-05T10:37:13;2.65;;;2.45;;
65896;SDS011;52677;50.898;10.854;2022-08-05T10:39:18;7.72;;;2.75;;
65896;SDS011;52677;50.898;10.854;2022-08-05T10:41:30;2.92;;;2.30;;
65896;SDS011;52677;50.898;10.854;2022-08-05T10:43:42;2.95;;;2.38;;
65896;SDS011;52677;50.898;10.854;2022-08-05T10:45:57;3.10;;;2.42;;
65896;SDS011;52677;50.898;10.854;2022-08-05T10:47:59;6.53;;;2.60;;
65896;SDS011;52677;50.898;10.854;2022-08-05T10:50:31;4.60;;;2.83;;
65896;SDS011;52677;50.898;10.854;2022-08-05T10:52:38;3.83;;;2.50;;
65896;SDS011;52677;50.898;10.854;2022-08-05T10:54:47;7.85;;;3.03;;
65896;SDS011;52677;50.898;10.854;2022-08-05T10:57:03;5.00;;;2.55;;
65896;SDS011;52677;50.898;10.854;2022-08-05T10:59:04;2.90;;;2.60;;
65896;SDS011;52677;50.898;10.854;2022-08-05T11:05:09;2.80;;;2.17;;
65896;SDS011;52677;50.898;10.854;2022-08-05T11:07:10;3.47;;;2.35;;
65896;SDS011;52677;50.898;10.854;2022-08-05T11:09:21;3.88;;;2.67;;
65896;SDS011;52677;50.898;10.854;2022-08-05T11:11:33;3.78;;;2.40;;
65896;SDS011;52677;50.898;10.854;2022-08-05T11:13:39;4.55;;;2.40;;
65896;SDS011;52677;50.898;10.854;2022-08-05T11:15:40;4.82;;;2.50;;
65896;SDS011;52677;50.898;10.854;2022-08-05T11:17:43;3.20;;;2.50;;
65896;SDS011;52677;50.898;10.854;2022-08-05T11:19:45;3.65;;;2.40;;
65896;SDS011;52677;50.898;10.854;2022-08-05T11:21:47;2.47;;;2.28;;
65896;SDS011;52677;50.898;10.854;2022-08-05T11:23:51;4.35;;;2.25;;
65896;SDS011;52677;50.898;10.854;2022-08-05T11:26:19;3.30;;;2.30;;
65896;SDS011;52677;50.898;10.854;2022-08-05T11:30:21;3.67;;;2.30;;
65896;SDS011;52677;50.898;10.854;2022-08-05T11:32:26;3.28;;;2.40;;
65896;SDS011;52677;50.898;10.854;2022-08-05T11:34:34;3.00;;;2.70;;
65896;SDS011;52677;50.898;10.854;2022-08-05T11:43:03;4.45;;;2.70;;
65896;SDS011;52677;50.898;10.854;2022-08-05T11:45:04;4.45;;;2.50;;
65896;SDS011;52677;50.898;10.854;2022-08-05T11:47:05;2.50;;;2.30;;
65896;SDS011;52677;50.898;10.854;2022-08-05T11:49:06;3.53;;;2.60;;
65896;SDS011;52677;50.898;10.854;2022-08-05T11:51:12;3.72;;;2.50;;
65896;SDS011;52677;50.898;10.854;2022-08-05T11:53:13;3.08;;;2.78;;
65896;SDS011;52677;50.898;10.854;2022-08-05T11:55:15;9.90;;;3.03;;
65896;SDS011;52677;50.898;10.854;2022-08-05T11:57:15;2.72;;;2.50;;
65896;SDS011;52677;50.898;10.854;2022-08-05T11:59:19;3.30;;;2.90;;
65896;SDS011;52677;50.898;10.854;2022-08-05T12:01:22;3.53;;;2.60;;
65896;SDS011;52677;50.898;10.854;2022-08-05T12:03:22;3.80;;;2.90;;
65896;SDS011;52677;50.898;10.854;2022-08-05T12:05:24;3.20;;;2.90;;
65896;SDS011;52677;50.898;10.854;2022-08-05T12:07:31;3.20;;;2.90;;
65896;SDS011;52677;50.898;10.854;2022-08-05T12:09:37;3.20;;;2.72;;
65896;SDS011;52677;50.898;10.854;2022-08-05T12:11:42;3.38;;;3.08;;
65896;SDS011;52677;50.898;10.854;2022-08-05T12:13:57;5.57;;;2.70;;
65896;SDS011;52677;50.898;10.854;2022-08-05T12:15:59;3.67;;;3.00;;
65896;SDS011;52677;50.898;10.854;2022-08-05T12:17:59;6.00;;;2.75;;
65896;SDS011;52677;50.898;10.854;2022-08-05T12:19:59;4.30;;;2.92;;
65896;SDS011;52677;50.898;10.854;2022-08-05T12:22:00;2.97;;;2.70;;
65896;SDS011;52677;50.898;10.854;2022-08-05T12:24:33;3.33;;;2.70;;
65896;SDS011;52677;50.898;10.854;2022-08-05T12:26:33;4.18;;;2.97;;
65896;SDS011;52677;50.898;10.854;2022-08-05T12:28:35;3.45;;;3.10;;
65896;SDS011;52677;50.898;10.854;2022-08-05T12:30:37;4.30;;;3.30;;
65896;SDS011;52677;50.898;10.854;2022-08-05T12:32:44;3.58;;;3.22;;
65896;SDS011;52677;50.898;10.854;2022-08-05T12:34:46;3.60;;;3.05;;
65896;SDS011;52677;50.898;10.854;2022-08-05T12:36:47;4.72;;;3.63;;
65896;SDS011;52677;50.898;10.854;2022-08-05T12:38:50;5.00;;;3.42;;
65896;SDS011;52677;50.898;10.854;2022-08-05T12:40:51;5.90;;;3.25;;
65896;SDS011;52677;50.898;10.854;2022-08-05T12:42:52;3.53;;;3.22;;
65896;SDS011;52677;50.898;10.854;2022-08-05T12:45:01;4.55;;;3.15;;
65896;SDS011;52677;50.898;10.854;2022-08-05T12:47:05;4.05;;;3.53;;